Etusivu
METAR-TAF:

METAR-TAF

Lentoasemat :

Yap, Mikronesia

Yapin kansainvälinen lentoasema

Leveyspiiri: 09-29N, Pituuspiiri: 138-05E, korkeus merenpinnasta: 28 m

Tämänhetkinen sää

Tämä raportti tehtiin 1 tunti ja 14 minuuttia sitten, kello 22.52 UTC
Tuuli 7 kn idästä
Lämpötila 27°C
Kosteus 84%
Ilmanpaine 1012 hPa
Näkyvyys: 19.3 km
Hajanaisia pilviä 1600 ft:n korkeudessa, Kasvava cumulus-pilvi.
Hajonneita pilviä 13000 ft:n korkeudessa
Hajonneita pilviä 30000 ft:n korkeudessa

METAR: PTYA 192252Z 08007KT 12SM SCT016TCU BKN130 BKN300 27/24 A2987 RMK TCU SE-SW SLP117 T02730235

Aika: 10:06 (00:06 UTC)

Sääennuste

Tämä raportti tehtiin 45 minuuttia sitten, kello 23.21 UTC
Ennuste voimassa 20. päivästä klo 00 UTC - 20. päivään klo 24 UTC
Tuuli 11 kn idästä
Näkyvyys: 10 km
Muutamia pilviä 1600 ft:n korkeudessa

TAF: PTYA 192321Z 2000/2024 08011KT P6SM FEW016

Säähavainnot ja -ennusteet yli 4000 lentoasemalta (METAR- ja TAF-raportit).

Käytössä olevat sääasemat on merkitty karttaan keltaisilla ja punaisilla pisteillä.

Aseta hiiri pisteen päälle nähdäksesi sääaseman nimen.

Klikkaa sitten nähdäksesi säähavainnot ja -ennusteet.

Kartan vaihtaminen: klikkaa mustalla rastilla varustettuja vihreitä pisteitä, niin voit zoomata sisään; viivalla varustettua vihreää pistettä, niin voit zoomata ulos tai vihreitä nuolia, niin pääset viereisille kartoille.


METAR-TAF: